Aeroporto :
LOGIN :

Iscrizione | Disclaimer

   EN    FR    IT 

 










Sommario :    VFR   VFR Marginale   IFR   IFR Intensivo   IFR Molto Intensivo
Visibilità : 
Base nubi : 
>= 8 km
>= 3000ft
5 / 8 km
1000 / 3000 ft
1500m / 5 km
500 / 1000 ft
800 / 1500m
200 / 500 ft
< 800m
< 200 ft
Simboli :   Temporali  Nebbia  Neve Forte  Precipitazioni Forti  Vento > 20 kt
SIGMETs :   Varie  Temporali  Ghiacco  Turbolenza  Onda orograficha  Ceneri Vulcaniche






- Altitudine del aeroporto : 44 ft
- Codice IATA : POR


EFPO - Pori

ULTIMO METAR :
  • 112350Z AUTO 17007KT 9999 OVC009 04/03 Q1003

METARs OBSOLETI :
  • 112320Z AUTO 17008KT 9999 SCT008 BKN040 04/03 Q1003
  • 112250Z AUTO 17007KT 9999 FEW008 BKN042 04/02 Q1003
  • 112220Z AUTO 18006KT 9999 FEW007 03/02 Q1003
  • 112150Z AUTO 18005KT 9999 FEW009 BKN044 03/02 Q1003

TAF TAF EFPO
Valido dal 12 a 00 ore il 12 a 09 ore UTC


112322Z 1200/1209 17008KT 9999 SCT008 BKN040
BECMG 1200/1202 BKN008
TEMPO 1202/1208 1200 -RADZ BR BKN004



MetMap, La meteo Aeronautica in un colpo d'occhio ! - Copyright ORBIFLY Dicembre 2007 - Disclaimer

ORBIFLY MET'MAP TEAM :

Programmazione e sviluppo : Alexandra Zaïnal
Concezione : Baudouin d'Aumeries
Aiuto per la programmazione : Marc-Olivier Méhu
Supporto tecnico e logistico : Manuel Goepfert
Aiuto per la traduzione : Arnaldo La Scala

Contatto : metmap@orbifly.com




FONTI E CREDITI :

   NOAA